AirNav   Air Wisconsin pilot careers
 
 1065 users online  

KVLL Oakland/Troy Airport
Troy, Michigan, USA

GOING TO TROY?


FAA INFORMATION EFFECTIVE 26 APRIL 2018

Location

FAA Identifier: VLL
Lat/Long: 42-32-34.6000N / 083-10-40.4000W
42-32.576667N / 083-10.673333W
42.5429444 / -83.1778889
(estimated)
Elevation: 727.2 ft. / 221.7 m (surveyed)
Variation: 06W (1995)
From city: 2 miles E of TROY, MI
Time zone: UTC -4 (UTC -5 during Standard Time)
Zip code: 48084

Airport Operations

Airport use: Open to the public
Control tower: no
ARTCC: CLEVELAND CENTER
FSS: LANSING FLIGHT SERVICE STATION
NOTAMs facility: VLL (NOTAM-D service available)
Attendance: 0800-1800
Pattern altitude: 1727.2 ft. MSL
Wind indicator: lighted
Segmented circle: no
Lights: ACTVT MIRL RY 09/27 & PAPI RYS 09 & 27 - CTAF.
Beacon: white-green (lighted land airport)
Operates sunset to sunrise.
Landing fee: yes

Airport Communications

CTAF/UNICOM: 123.05
WX AWOS-3: 119.475 (248-288-4649)
DETROIT APPROACH: 134.3
DETROIT DEPARTURE: 134.3
BARII DP: 134.3
CCOBB DP: 134.3
CLVIN DP: 134.3
HHOWE DP: 134.3
KAYLN DP: 134.3
LIDDS DP: 134.3
MIGGY DP: 134.3
PAVYL DP: 134.3
SNDRS DP: 134.3
TRMML DP: 134.3
ZETTR DP: 134.3
WX ASOS at DET (11 nm SE): PHONE 313-371-9696
WX ASOS at PTK (13 nm NW): 125.025 (248-886-8551)

Nearby radio navigation aids

VOR radial/distance  VOR name  Freq  Var
PSIr124/18.3PONTIAC VORTAC111.0003W
SVMr069/20.1SALEM VORTAC114.3003W
DXOr029/21.5DETROIT VOR/DME113.4006W
YQGr325/23.4WINDSOR VOR/DME113.8006W
CRLr026/32.2CARLETON VOR/DME115.7003W
FNTr141/35.7FLINT VORTAC116.9006W

 
NDB name  Hdg/Dist  Freq  Var  ID
MADDS313/4.733805WDE -.. .
CARGL324/14.923005WVQ ...- --.-
GROSSE ILE005/26.541907WRYS .-. -.-- ...

Airport Services

Fuel available: 100LL JET-A
Parking: tiedowns
Airframe service: NONE
Powerplant service: NONE

Runway Information

Runway 9/27

Dimensions: 3549 x 60 ft. / 1082 x 18 m
Surface: asphalt, in fair condition
Runway edge lights: medium intensity
RUNWAY 9  RUNWAY 27
Latitude: 42-32.575973N42-32.578848N
Longitude: 083-11.068925W083-10.278788W
Elevation: 727.0 ft.701.0 ft.
Gradient: 0.7% DOWN0.7% UP
Traffic pattern: leftleft
Runway heading: 096 magnetic, 090 true276 magnetic, 270 true
Markings: nonprecision, in good conditionnonprecision, in good condition
Visual slope indicator: 2-light PAPI on right (3.75 degrees glide path)2-light PAPI on left (3.75 degrees glide path)
Runway end identifier lights: nono
Touchdown point: yes, no lightsyes, no lights
Obstructions: 19 ft. trees, 542 ft. from runway, 18:1 slope to clear17 ft. bldg, lighted, 540 ft. from runway, 20:1 slope to clear

Airport Ownership and Management from official FAA records

Ownership: Publicly-owned
Owner: OAKLAND COUNTY
6500 HIGHLAND ROAD
WATERFORD, MI 48327
Phone (248) 288-6100
ARPT PHONE 248-666-3900
Manager: CHERYL BUSH
6500 HIGHLAND RD
WATERFORD, MI 48327
Phone 248-666-3900

Airport Operational Statistics

Aircraft based on the field: 115
Single engine airplanes: 104
Multi engine airplanes: 7
Helicopters: 3
Ultralights: 1
    
Aircraft operations: avg 82/day *
50% transient general aviation
50% local general aviation
* for 12-month period ending 31 December 2014

Additional Remarks

DEER AND BIRDS ON & INVOF ARPT.
RY 09 +3 FT BERM 316 FT FM THLD.
NO TGL OR PRACTICE TFC PATTERNS.
FOR CD CTC DETROIT APCH AT 800-499-8181.

Instrument Procedures

NOTE: All procedures below are presented as PDF files. If you need a reader for these files, you should download the free Adobe Reader.

NOT FOR NAVIGATION. Please procure official charts for flight.
FAA instrument procedures published for use from 26 April 2018 at 901Z to 24 May 2018 at 0900Z.

 
STARs - Standard Terminal Arrivals
CRUXX SIX   download (248KB)
LLEEO TWO   download (321KB)
SPRTN THREE   download (158KB)
SWWAN TWO   download (148KB)
 
IAPs - Instrument Approach Procedures
RNAV (GPS) RWY 09   download (162KB)
NOTE: Special Take-Off Minimums/Departure Procedures apply   download (125KB)

Other nearby airports with instrument procedures:

KDET - Coleman A Young Municipal Airport (11 nm SE)
KPTK - Oakland County International Airport (13 nm NW)
KMTC - Selfridge Air National Guard Base (16 nm E)
1D2 - Canton-Plymouth-Mettetal Airport (17 nm SW)
57D - Ray Community Airport (17 nm NE)
D98 - Romeo State Airport (18 nm NE)
Y47 - Oakland Southwest Airport (20 nm W)
 
Loc | Ops | Rwys | IFR | FBO | Links
Com | Nav | Svcs | Stats | Notes

AirNav Hotels Sweepstakes
 
Area around KVLL (Oakland/Troy Airport)
 
Road maps at: MapQuest Bing Google
 
Aerial photo
WARNING: Photo may not be current or correct
Aerial photo of KVLL (Oakland/Troy Airport)
Photo by Jeff Schuster
Photo taken 29-Jun-2014
looking west.

Do you have a better or more recent aerial photo of Oakland/Troy Airport that you would like to share? If so, please send us your photo.

 
Sectional chart

 
Airport distance calculator
Flying to Oakland/Troy Airport? Find the distance to fly.

From to KVLL

Sunrise and sunset
Times for 26-Apr-2018
 Local
(UTC-4)
 Zulu
(UTC)
Morning civil twilight06:0510:05
Sunrise06:3610:36
Sunset20:2600:26
Evening civil twilight20:5600:56

Current date and time
Zulu (UTC)  26-Apr-2018 12:56:02
Local (UTC-4)  26-Apr-2018 08:56:02
 
METAR
KVLL 261235Z AUTO 28006KT 10SM CLR 06/03 A2997 RMK AO2 T00640029
KDET 
11nm SE 
261153Z 28004KT 10SM CLR 05/02 A2995 RMK AO2 SLP147 T00500017 10050 20022 53011
KPTK 
13nm NW 
261153Z 28004KT 10SM FEW220 04/03 A2994 RMK AO2 SLP142 T00390028 10039 20017 53013
KMTC 
17nm E 
261155Z 27004KT 10SM FEW240 05/M01 A2994 RMK WND DATA ESTMD ALSTG/SLP147 ESTMD SLP147 52019
CYQG 
19nm SE 
261200Z 25006KT 7SM FEW250 05/04 A2995 RMK CI1 SLP148
KDTW 
20nm S 
261156Z 26004KT 2SM R03R/3000VP6000FT HZ FEW004 FEW230 06/03 A2996 RMK AO2 TWR VIS 4 T00610033
TAF
KDET 
11nm SE 
261120Z 2612/2712 VRB03KT P6SM SKC TEMPO 2612/2614 6SM BR SKC FM261400 25005KT P6SM SKC FM270000 19004KT P6SM SCT250
KPTK 
13nm NW 
261120Z 2612/2712 VRB03KT 6SM MIFG SKC FM261300 25005KT P6SM SKC FM270000 20004KT P6SM SCT250
KMTC 
17nm E 
260900Z 2609/2715 27006KT 9999 FEW025 QNH2987INS BECMG 2610/2611 25006KT 6000 BR FEW025 QNH2990INS BECMG 2613/2614 24006KT 9999 NSW FEW250 QNH2975INS WND 18006KT AFT 2700 BECMG 2713/2714 26009KT 9999 SCT040 SCT250 QNH2974INS TX15/2621Z TN01/2611Z LAST NO AMDS AFT 2609 NEXT 2611
CYQG 
19nm SE 
261138Z 2612/2712 25005KT P6SM FEW020 TEMPO 2612/2613 5SM BR PROB30 2612/2613 11/2SM BR FM261600 25008KT P6SM FEW030 BECMG 2619/2621 20010KT RMK NXT FCST BY 261800Z
KDTW 
20nm S 
261157Z 2612/2718 25005KT 3SM MIFG BR FEW008 TEMPO 2612/2613 2SM MIFG BR FEW008 FM261300 26005KT P6SM SKC TEMPO 2613/2614 5SM BR FEW008 FM270000 19004KT P6SM SCT250 FM271200 25006KT P6SM BKN100
NOTAMs
Click for the latest NOTAMs
NOTAMs are issued by the DoD/FAA and will open in a separate window not controlled by AirNav.

 

 
 

FBO, Fuel Providers, and Aircraft Ground Support

  
 Business Name 
 
 Contact 
 
 Services / Description 
 
Fuel Prices
 
Comments
  
JDS Pump-N-Go 248-288-6100
[email]
Aviation fuel, Aircraft parking (ramp or tiedown), Hangar leasing / sales

More info about JDS Pump-N-Go
Avfuel
100LL Jet A
SS $5.06 $4.47 
 Updated 16-Apr-2018
 
   write
24HRFUEL.com 248-655-1474
no information available

If you are affiliated with 24HRFUEL.com and would like to show here your services, contact info, web link, logo, and more, click here
100LL Jet A
SS $4.89 $3.49 
 Updated 18-Apr-2018
 
   2 read write
SS=Self service
Update Fuel Prices
 

Would you like to see your business listed on this page?

 If your business provides an interesting product or service to pilots, flight crews, aircraft, or users of the Oakland/Troy Airport, you should consider listing it here.  To start the listing process, click on the button below
 
Add a business
 

Other Pages about Oakland/Troy Airport

Page from the Michigan Airport Directory (PDF)
Oakland/Troy Airport Website
 
Update a link
 
Copyright © AirNav, LLC. All rights reserved. Privacy Policy  Contact